ジャカルタ の空港の天気 - METARとTAF

スカルノハッタ国際空港 ( WIII / CGK ) - インドネシア バンテン州、Cengkareng ( ジャカルタ近郊)
飛行場実況気象(Metar)
観測時間04/22 00:00 WIB (04/21 17:00 UTC)
風向・風速不定 2m/s
視程5000m
天気現象煙霧
少しの雲 雲底高度 610m
気温28℃
湿度74%
気圧1008hPa
METARWIII 211700Z VRB04KT 5000 HZ FEW020 28/23 Q1008 NOSIG
過去の天気等 Google飛行場航空写真 Wunderground天気予報

過去48時間のMETAR

飛行場予報(TAF)
発表時間: 4/21 18:00 WIB (4/21 11:00 UTC)
予報対象時間: 21日19時 WIB ~ 23日1時 WIB
風向・風速不定 1m/s
視程5000m
天気現象煙霧
全天の4割程度の雲 雲底高度 610m
21日19時 WIB ~ 21日22時 WIB に一時的に
天気現象弱い雷雨
少しの積乱雲 雲底高度 550m
TAF WIII 211100Z 2112/2218 VRB02KT 5000 HZ SCT020
TEMPO 2112/2115 -TSRA FEW018CB